sensor_id;sensor_type;location;lat;lon;timestamp;temperature;humidity
31271;DHT22;17904;47.420;9.310;2022-12-18T00:01:41;-2.80;99.90
31271;DHT22;17904;47.420;9.310;2022-12-18T00:04:16;-2.80;99.90
31271;DHT22;17904;47.420;9.310;2022-12-18T00:06:45;-2.70;99.90
31271;DHT22;17904;47.420;9.310;2022-12-18T00:09:13;-2.80;99.90
31271;DHT22;17904;47.420;9.310;2022-12-18T00:11:40;-2.80;99.90
31271;DHT22;17904;47.420;9.310;2022-12-18T00:14:09;-2.80;99.90
31271;DHT22;17904;47.420;9.310;2022-12-18T00:16:37;-2.80;99.90
31271;DHT22;17904;47.420;9.310;2022-12-18T00:19:04;-2.80;99.90
31271;DHT22;17904;47.420;9.310;2022-12-18T00:21:32;-2.90;99.90
31271;DHT22;17904;47.420;9.310;2022-12-18T00:23:59;-2.90;99.90
31271;DHT22;17904;47.420;9.310;2022-12-18T00:26:32;-2.90;99.90
31271;DHT22;17904;47.420;9.310;2022-12-18T00:29:06;-2.90;99.90
31271;DHT22;17904;47.420;9.310;2022-12-18T00:31:34;-2.90;99.90
31271;DHT22;17904;47.420;9.310;2022-12-18T00:34:01;-2.90;99.90
31271;DHT22;17904;47.420;9.310;2022-12-18T00:36:31;-3.00;99.90
31271;DHT22;17904;47.420;9.310;2022-12-18T00:39:00;-3.00;99.90
31271;DHT22;17904;47.420;9.310;2022-12-18T00:41:27;-3.00;99.90
31271;DHT22;17904;47.420;9.310;2022-12-18T00:44:15;-3.10;99.90
31271;DHT22;17904;47.420;9.310;2022-12-18T00:46:43;-3.10;99.90
31271;DHT22;17904;47.420;9.310;2022-12-18T00:49:10;-3.10;99.90
31271;DHT22;17904;47.420;9.310;2022-12-18T00:51:37;-3.10;99.90
31271;DHT22;17904;47.420;9.310;2022-12-18T00:54:04;-3.10;99.90
31271;DHT22;17904;47.420;9.310;2022-12-18T00:56:31;-3.20;99.90
31271;DHT22;17904;47.420;9.310;2022-12-18T00:58:58;-3.20;99.90
31271;DHT22;17904;47.420;9.310;2022-12-18T01:01:24;-3.10;99.90
31271;DHT22;17904;47.420;9.310;2022-12-18T01:03:51;-3.10;99.90
31271;DHT22;17904;47.420;9.310;2022-12-18T01:06:19;-3.10;99.90
31271;DHT22;17904;47.420;9.310;2022-12-18T01:08:46;-3.10;99.90
31271;DHT22;17904;47.420;9.310;2022-12-18T01:11:15;-3.10;99.90
31271;DHT22;17904;47.420;9.310;2022-12-18T01:13:43;-3.10;99.90
31271;DHT22;17904;47.420;9.310;2022-12-18T01:16:15;-3.10;99.90
31271;DHT22;17904;47.420;9.310;2022-12-18T01:18:42;-3.10;99.90
31271;DHT22;17904;47.420;9.310;2022-12-18T01:21:12;-3.10;99.90
31271;DHT22;17904;47.420;9.310;2022-12-18T01:23:39;-3.10;99.90
31271;DHT22;17904;47.420;9.310;2022-12-18T01:26:12;-3.20;99.90
31271;DHT22;17904;47.420;9.310;2022-12-18T01:28:39;-3.20;99.90
31271;DHT22;17904;47.420;9.310;2022-12-18T01:31:27;-3.20;99.90
31271;DHT22;17904;47.420;9.310;2022-12-18T01:33:54;-3.20;99.90
31271;DHT22;17904;47.420;9.310;2022-12-18T01:36:24;-3.20;99.90
31271;DHT22;17904;47.420;9.310;2022-12-18T01:38:52;-3.20;99.90
31271;DHT22;17904;47.420;9.310;2022-12-18T01:41:25;-3.20;99.90
31271;DHT22;17904;47.420;9.310;2022-12-18T01:43:54;-3.20;99.90
31271;DHT22;17904;47.420;9.310;2022-12-18T01:46:23;-3.20;99.90
31271;DHT22;17904;47.420;9.310;2022-12-18T01:48:56;-3.20;99.90
31271;DHT22;17904;47.420;9.310;2022-12-18T01:51:24;-3.20;99.90
31271;DHT22;17904;47.420;9.310;2022-12-18T01:53:52;-3.20;99.90
31271;DHT22;17904;47.420;9.310;2022-12-18T01:56:19;-3.20;99.90
31271;DHT22;17904;47.420;9.310;2022-12-18T01:59:00;-3.20;99.90
31271;DHT22;17904;47.420;9.310;2022-12-18T02:01:29;-3.20;99.90
31271;DHT22;17904;47.420;9.310;2022-12-18T02:04:20;-3.30;99.90
31271;DHT22;17904;47.420;9.310;2022-12-18T02:06:52;-3.30;99.90
31271;DHT22;17904;47.420;9.310;2022-12-18T02:09:28;-3.40;99.90
31271;DHT22;17904;47.420;9.310;2022-12-18T02:12:08;-3.40;99.90
31271;DHT22;17904;47.420;9.310;2022-12-18T02:15:03;-3.40;99.90
31271;DHT22;17904;47.420;9.310;2022-12-18T02:17:39;-3.40;99.90
31271;DHT22;17904;47.420;9.310;2022-12-18T02:20:35;-3.40;99.90
31271;DHT22;17904;47.420;9.310;2022-12-18T02:28:26;-3.40;99.90
31271;DHT22;17904;47.420;9.310;2022-12-18T02:31:06;-3.40;99.90
31271;DHT22;17904;47.420;9.310;2022-12-18T02:33:35;-3.40;99.90
31271;DHT22;17904;47.420;9.310;2022-12-18T02:36:04;-3.40;99.90
31271;DHT22;17904;47.420;9.310;2022-12-18T02:38:33;-3.40;99.90
31271;DHT22;17904;47.420;9.310;2022-12-18T02:41:07;-3.40;99.90
31271;DHT22;17904;47.420;9.310;2022-12-18T02:43:35;-3.30;99.90
31271;DHT22;17904;47.420;9.310;2022-12-18T02:49:01;-3.30;99.90
31271;DHT22;17904;47.420;9.310;2022-12-18T02:51:36;-3.40;99.90
31271;DHT22;17904;47.420;9.310;2022-12-18T02:54:10;-3.40;99.90
31271;DHT22;17904;47.420;9.310;2022-12-18T02:56:51;-3.40;99.90
31271;DHT22;17904;47.420;9.310;2022-12-18T02:59:40;-3.40;99.90
31271;DHT22;17904;47.420;9.310;2022-12-18T03:05:10;-3.50;99.90
31271;DHT22;17904;47.420;9.310;2022-12-18T03:07:50;-3.50;99.90
31271;DHT22;17904;47.420;9.310;2022-12-18T03:10:23;-3.50;99.90
31271;DHT22;17904;47.420;9.310;2022-12-18T03:12:56;-3.60;99.90
31271;DHT22;17904;47.420;9.310;2022-12-18T03:15:28;-3.60;99.90
31271;DHT22;17904;47.420;9.310;2022-12-18T03:18:10;-3.60;99.90
31271;DHT22;17904;47.420;9.310;2022-12-18T03:20:43;-3.60;99.90
31271;DHT22;17904;47.420;9.310;2022-12-18T03:23:17;-3.60;99.90
31271;DHT22;17904;47.420;9.310;2022-12-18T03:25:52;-3.60;99.90
31271;DHT22;17904;47.420;9.310;2022-12-18T03:28:22;-3.60;99.90
31271;DHT22;17904;47.420;9.310;2022-12-18T03:30:57;-3.60;99.90
31271;DHT22;17904;47.420;9.310;2022-12-18T03:33:32;-3.60;99.90
31271;DHT22;17904;47.420;9.310;2022-12-18T03:36:01;-3.60;99.90
31271;DHT22;17904;47.420;9.310;2022-12-18T03:38:28;-3.60;99.90
31271;DHT22;17904;47.420;9.310;2022-12-18T03:44:26;-3.50;99.90
31271;DHT22;17904;47.420;9.310;2022-12-18T03:47:13;-3.50;99.90
31271;DHT22;17904;47.420;9.310;2022-12-18T03:55:25;-3.60;99.90
31271;DHT22;17904;47.420;9.310;2022-12-18T03:58:00;-3.60;99.90
31271;DHT22;17904;47.420;9.310;2022-12-18T04:00:39;-3.60;99.90
31271;DHT22;17904;47.420;9.310;2022-12-18T04:03:11;-3.60;99.90
31271;DHT22;17904;47.420;9.310;2022-12-18T04:05:44;-3.70;99.90
31271;DHT22;17904;47.420;9.310;2022-12-18T04:08:13;-3.70;99.90
31271;DHT22;17904;47.420;9.310;2022-12-18T04:10:47;-3.70;99.90
31271;DHT22;17904;47.420;9.310;2022-12-18T04:13:27;-3.80;99.90
31271;DHT22;17904;47.420;9.310;2022-12-18T04:15:56;-3.80;99.90
31271;DHT22;17904;47.420;9.310;2022-12-18T04:18:23;-3.80;99.90
31271;DHT22;17904;47.420;9.310;2022-12-18T04:20:50;-3.80;99.90
31271;DHT22;17904;47.420;9.310;2022-12-18T04:23:17;-3.90;99.90
31271;DHT22;17904;47.420;9.310;2022-12-18T04:25:46;-3.90;99.90
31271;DHT22;17904;47.420;9.310;2022-12-18T04:28:19;-3.90;99.90
31271;DHT22;17904;47.420;9.310;2022-12-18T04:30:47;-3.90;99.90
31271;DHT22;17904;47.420;9.310;2022-12-18T04:33:17;-3.90;99.90
31271;DHT22;17904;47.420;9.310;2022-12-18T04:35:44;-3.90;99.90
31271;DHT22;17904;47.420;9.310;2022-12-18T04:38:12;-3.90;99.90
31271;DHT22;17904;47.420;9.310;2022-12-18T04:40:39;-3.90;99.90
31271;DHT22;17904;47.420;9.310;2022-12-18T04:43:15;-3.90;99.90
31271;DHT22;17904;47.420;9.310;2022-12-18T04:45:41;-3.90;99.90
31271;DHT22;17904;47.420;9.310;2022-12-18T04:48:08;-3.90;99.90
31271;DHT22;17904;47.420;9.310;2022-12-18T04:50:36;-4.00;99.90
31271;DHT22;17904;47.420;9.310;2022-12-18T04:53:02;-4.00;99.90
31271;DHT22;17904;47.420;9.310;2022-12-18T04:55:29;-4.00;99.90
31271;DHT22;17904;47.420;9.310;2022-12-18T04:57:56;-4.10;99.90
31271;DHT22;17904;47.420;9.310;2022-12-18T05:00:23;-4.00;99.90
31271;DHT22;17904;47.420;9.310;2022-12-18T05:02:51;-4.00;99.90
31271;DHT22;17904;47.420;9.310;2022-12-18T05:05:18;-4.00;99.90
31271;DHT22;17904;47.420;9.310;2022-12-18T05:07:45;-4.10;99.90
31271;DHT22;17904;47.420;9.310;2022-12-18T05:10:11;-4.10;99.90
31271;DHT22;17904;47.420;9.310;2022-12-18T05:12:38;-4.10;99.90
31271;DHT22;17904;47.420;9.310;2022-12-18T05:15:30;-4.20;99.90
31271;DHT22;17904;47.420;9.310;2022-12-18T05:17:58;-4.20;99.90
31271;DHT22;17904;47.420;9.310;2022-12-18T05:20:25;-4.30;99.90
31271;DHT22;17904;47.420;9.310;2022-12-18T05:22:53;-4.30;99.90
31271;DHT22;17904;47.420;9.310;2022-12-18T05:25:20;-4.30;99.90
31271;DHT22;17904;47.420;9.310;2022-12-18T05:27:47;-4.30;99.90
31271;DHT22;17904;47.420;9.310;2022-12-18T05:30:15;-4.30;99.90
31271;DHT22;17904;47.420;9.310;2022-12-18T05:32:42;-4.30;99.90
31271;DHT22;17904;47.420;9.310;2022-12-18T05:35:10;-4.30;99.90
31271;DHT22;17904;47.420;9.310;2022-12-18T05:37:37;-4.30;99.90
31271;DHT22;17904;47.420;9.310;2022-12-18T05:40:10;-4.30;99.90
31271;DHT22;17904;47.420;9.310;2022-12-18T05:42:37;-4.30;99.90
31271;DHT22;17904;47.420;9.310;2022-12-18T05:45:04;-4.30;99.90
31271;DHT22;17904;47.420;9.310;2022-12-18T05:47:31;-4.40;99.90
31271;DHT22;17904;47.420;9.310;2022-12-18T05:49:58;-4.40;99.90
31271;DHT22;17904;47.420;9.310;2022-12-18T05:52:25;-4.40;99.90
31271;DHT22;17904;47.420;9.310;2022-12-18T05:54:51;-4.50;99.90
31271;DHT22;17904;47.420;9.310;2022-12-18T05:57:18;-4.50;99.90
31271;DHT22;17904;47.420;9.310;2022-12-18T05:59:45;-4.50;99.90
31271;DHT22;17904;47.420;9.310;2022-12-18T06:02:12;-4.50;99.90
31271;DHT22;17904;47.420;9.310;2022-12-18T06:04:39;-4.60;99.90
31271;DHT22;17904;47.420;9.310;2022-12-18T06:07:06;-4.60;99.90
31271;DHT22;17904;47.420;9.310;2022-12-18T06:09:32;-4.60;99.90
31271;DHT22;17904;47.420;9.310;2022-12-18T06:11:59;-4.70;99.90
31271;DHT22;17904;47.420;9.310;2022-12-18T06:14:26;-4.70;99.90
31271;DHT22;17904;47.420;9.310;2022-12-18T06:16:53;-4.70;99.90
31271;DHT22;17904;47.420;9.310;2022-12-18T06:19:20;-4.70;99.90
31271;DHT22;17904;47.420;9.310;2022-12-18T06:21:46;-4.80;99.90
31271;DHT22;17904;47.420;9.310;2022-12-18T06:24:13;-4.80;99.90
31271;DHT22;17904;47.420;9.310;2022-12-18T06:26:40;-4.80;99.90
31271;DHT22;17904;47.420;9.310;2022-12-18T06:29:06;-4.80;99.90
31271;DHT22;17904;47.420;9.310;2022-12-18T06:31:33;-4.80;99.90
31271;DHT22;17904;47.420;9.310;2022-12-18T06:34:04;-4.80;99.90
31271;DHT22;17904;47.420;9.310;2022-12-18T06:36:31;-4.80;99.90
31271;DHT22;17904;47.420;9.310;2022-12-18T06:38:58;-4.70;99.90
31271;DHT22;17904;47.420;9.310;2022-12-18T06:41:25;-4.80;99.90
31271;DHT22;17904;47.420;9.310;2022-12-18T06:43:52;-4.80;99.90
31271;DHT22;17904;47.420;9.310;2022-12-18T06:46:25;-4.70;99.90
31271;DHT22;17904;47.420;9.310;2022-12-18T06:48:51;-4.80;99.90
31271;DHT22;17904;47.420;9.310;2022-12-18T06:51:20;-4.80;99.90
31271;DHT22;17904;47.420;9.310;2022-12-18T06:53:47;-4.80;99.90
31271;DHT22;17904;47.420;9.310;2022-12-18T06:56:14;-4.80;99.90
31271;DHT22;17904;47.420;9.310;2022-12-18T06:58:41;-4.80;99.90
31271;DHT22;17904;47.420;9.310;2022-12-18T07:01:10;-4.90;99.90
31271;DHT22;17904;47.420;9.310;2022-12-18T07:03:39;-4.80;99.90
31271;DHT22;17904;47.420;9.310;2022-12-18T07:06:13;-4.80;99.90
31271;DHT22;17904;47.420;9.310;2022-12-18T07:08:41;-4.90;99.90
31271;DHT22;17904;47.420;9.310;2022-12-18T07:11:08;-4.90;99.90
31271;DHT22;17904;47.420;9.310;2022-12-18T07:13:35;-4.90;99.90
31271;DHT22;17904;47.420;9.310;2022-12-18T07:16:07;-4.90;99.90
31271;DHT22;17904;47.420;9.310;2022-12-18T07:18:44;-4.90;99.90
31271;DHT22;17904;47.420;9.310;2022-12-18T07:21:14;-5.00;99.90
31271;DHT22;17904;47.420;9.310;2022-12-18T07:23:41;-5.00;99.90
31271;DHT22;17904;47.420;9.310;2022-12-18T07:26:11;-5.00;99.90
31271;DHT22;17904;47.420;9.310;2022-12-18T07:28:39;-5.00;99.90
31271;DHT22;17904;47.420;9.310;2022-12-18T07:31:09;-5.10;99.90
31271;DHT22;17904;47.420;9.310;2022-12-18T07:33:37;-5.00;99.90
31271;DHT22;17904;47.420;9.310;2022-12-18T07:36:07;-5.00;99.90
31271;DHT22;17904;47.420;9.310;2022-12-18T07:38:34;-5.00;99.90
31271;DHT22;17904;47.420;9.310;2022-12-18T07:41:02;-5.00;99.90
31271;DHT22;17904;47.420;9.310;2022-12-18T07:43:33;-5.00;99.90
31271;DHT22;17904;47.420;9.310;2022-12-18T07:46:00;-5.00;99.90
31271;DHT22;17904;47.420;9.310;2022-12-18T07:48:28;-4.90;99.90
31271;DHT22;17904;47.420;9.310;2022-12-18T07:51:02;-4.90;99.90
31271;DHT22;17904;47.420;9.310;2022-12-18T07:53:31;-4.90;99.90
31271;DHT22;17904;47.420;9.310;2022-12-18T07:56:00;-4.80;99.90
31271;DHT22;17904;47.420;9.310;2022-12-18T07:58:47;-4.80;99.90
31271;DHT22;17904;47.420;9.310;2022-12-18T08:01:14;-4.90;99.90
31271;DHT22;17904;47.420;9.310;2022-12-18T08:03:41;-4.80;99.90
31271;DHT22;17904;47.420;9.310;2022-12-18T08:06:09;-4.80;99.90
31271;DHT22;17904;47.420;9.310;2022-12-18T08:08:36;-4.90;99.90
31271;DHT22;17904;47.420;9.310;2022-12-18T08:11:03;-4.90;99.90
31271;DHT22;17904;47.420;9.310;2022-12-18T08:13:30;-4.90;99.90
31271;DHT22;17904;47.420;9.310;2022-12-18T08:15:59;-4.90;99.90
31271;DHT22;17904;47.420;9.310;2022-12-18T08:18:26;-4.90;99.90
31271;DHT22;17904;47.420;9.310;2022-12-18T08:20:54;-4.90;99.90
31271;DHT22;17904;47.420;9.310;2022-12-18T08:23:21;-4.90;99.90
31271;DHT22;17904;47.420;9.310;2022-12-18T08:25:48;-5.00;99.90
31271;DHT22;17904;47.420;9.310;2022-12-18T08:28:17;-5.00;99.90
31271;DHT22;17904;47.420;9.310;2022-12-18T08:30:44;-5.00;99.90
31271;DHT22;17904;47.420;9.310;2022-12-18T08:33:11;-5.00;99.90
31271;DHT22;17904;47.420;9.310;2022-12-18T08:35:38;-5.00;99.90
31271;DHT22;17904;47.420;9.310;2022-12-18T08:38:11;-5.00;99.90
31271;DHT22;17904;47.420;9.310;2022-12-18T08:40:38;-4.90;99.90
31271;DHT22;17904;47.420;9.310;2022-12-18T08:43:05;-4.90;99.90
31271;DHT22;17904;47.420;9.310;2022-12-18T08:45:50;-4.80;99.90
31271;DHT22;17904;47.420;9.310;2022-12-18T08:48:17;-4.80;99.90
31271;DHT22;17904;47.420;9.310;2022-12-18T08:50:58;-4.80;99.90
31271;DHT22;17904;47.420;9.310;2022-12-18T08:53:26;-4.70;99.90
31271;DHT22;17904;47.420;9.310;2022-12-18T08:55:59;-4.70;99.90
31271;DHT22;17904;47.420;9.310;2022-12-18T08:58:26;-4.70;99.90
31271;DHT22;17904;47.420;9.310;2022-12-18T09:00:53;-4.60;99.90
31271;DHT22;17904;47.420;9.310;2022-12-18T09:03:20;-4.60;99.90
31271;DHT22;17904;47.420;9.310;2022-12-18T09:05:49;-4.50;99.90
31271;DHT22;17904;47.420;9.310;2022-12-18T09:08:16;-4.50;99.90
31271;DHT22;17904;47.420;9.310;2022-12-18T09:10:48;-4.40;99.90
31271;DHT22;17904;47.420;9.310;2022-12-18T09:13:16;-4.40;99.90
31271;DHT22;17904;47.420;9.310;2022-12-18T09:15:45;-4.30;99.90
31271;DHT22;17904;47.420;9.310;2022-12-18T09:18:13;-4.30;99.90
31271;DHT22;17904;47.420;9.310;2022-12-18T09:20:40;-4.30;99.90
31271;DHT22;17904;47.420;9.310;2022-12-18T09:23:08;-4.20;99.90
31271;DHT22;17904;47.420;9.310;2022-12-18T09:25:36;-4.20;99.90
31271;DHT22;17904;47.420;9.310;2022-12-18T09:28:06;-4.20;99.90
31271;DHT22;17904;47.420;9.310;2022-12-18T09:30:33;-4.20;99.90
31271;DHT22;17904;47.420;9.310;2022-12-18T09:33:01;-4.20;99.90
31271;DHT22;17904;47.420;9.310;2022-12-18T09:35:28;-4.20;99.90
31271;DHT22;17904;47.420;9.310;2022-12-18T09:37:55;-4.20;99.90
31271;DHT22;17904;47.420;9.310;2022-12-18T09:40:25;-4.10;99.90
31271;DHT22;17904;47.420;9.310;2022-12-18T09:42:56;-4.10;99.90
31271;DHT22;17904;47.420;9.310;2022-12-18T09:45:24;-4.10;99.90
31271;DHT22;17904;47.420;9.310;2022-12-18T09:47:52;-4.00;99.90
31271;DHT22;17904;47.420;9.310;2022-12-18T09:50:26;-4.00;99.90
31271;DHT22;17904;47.420;9.310;2022-12-18T09:52:56;-4.00;99.90
31271;DHT22;17904;47.420;9.310;2022-12-18T09:55:44;-4.00;99.90
31271;DHT22;17904;47.420;9.310;2022-12-18T09:58:37;-4.00;99.90
31271;DHT22;17904;47.420;9.310;2022-12-18T10:01:13;-4.00;99.90
31271;DHT22;17904;47.420;9.310;2022-12-18T10:03:43;-3.90;99.90
31271;DHT22;17904;47.420;9.310;2022-12-18T10:06:32;-3.90;99.90
31271;DHT22;17904;47.420;9.310;2022-12-18T10:11:39;-3.90;99.90
31271;DHT22;17904;47.420;9.310;2022-12-18T10:17:19;-3.90;99.90
31271;DHT22;17904;47.420;9.310;2022-12-18T10:20:08;-3.80;99.90
31271;DHT22;17904;47.420;9.310;2022-12-18T10:25:43;-3.70;99.90
31271;DHT22;17904;47.420;9.310;2022-12-18T10:28:15;-3.60;99.90
31271;DHT22;17904;47.420;9.310;2022-12-18T10:30:43;-3.50;99.90
31271;DHT22;17904;47.420;9.310;2022-12-18T10:33:13;-3.50;99.90
31271;DHT22;17904;47.420;9.310;2022-12-18T10:35:42;-3.40;99.90
31271;DHT22;17904;47.420;9.310;2022-12-18T10:51:35;-3.20;99.90
31271;DHT22;17904;47.420;9.310;2022-12-18T10:54:06;-3.10;99.90
31271;DHT22;17904;47.420;9.310;2022-12-18T10:56:36;-3.00;99.90
31271;DHT22;17904;47.420;9.310;2022-12-18T10:59:07;-3.00;99.90
31271;DHT22;17904;47.420;9.310;2022-12-18T11:04:23;-2.80;99.90
31271;DHT22;17904;47.420;9.310;2022-12-18T11:09:31;-2.70;99.90
31271;DHT22;17904;47.420;9.310;2022-12-18T11:12:01;-2.70;99.90
31271;DHT22;17904;47.420;9.310;2022-12-18T11:14:46;-2.60;99.90
31271;DHT22;17904;47.420;9.310;2022-12-18T11:17:20;-2.60;99.90
31271;DHT22;17904;47.420;9.310;2022-12-18T11:19:54;-2.60;99.90
31271;DHT22;17904;47.420;9.310;2022-12-18T11:22:27;-2.50;99.90
31271;DHT22;17904;47.420;9.310;2022-12-18T11:25:18;-2.50;99.90
31271;DHT22;17904;47.420;9.310;2022-12-18T11:28:04;-2.40;99.90
31271;DHT22;17904;47.420;9.310;2022-12-18T11:30:35;-2.40;99.90
31271;DHT22;17904;47.420;9.310;2022-12-18T11:33:17;-2.30;99.90
31271;DHT22;17904;47.420;9.310;2022-12-18T11:35:55;-2.30;99.90
31271;DHT22;17904;47.420;9.310;2022-12-18T11:41:23;-2.50;99.90
31271;DHT22;17904;47.420;9.310;2022-12-18T11:44:15;-2.50;99.90
31271;DHT22;17904;47.420;9.310;2022-12-18T11:46:51;-2.60;99.90
31271;DHT22;17904;47.420;9.310;2022-12-18T11:49:27;-2.60;99.90
31271;DHT22;17904;47.420;9.310;2022-12-18T11:54:24;-2.50;99.90
31271;DHT22;17904;47.420;9.310;2022-12-18T11:56:53;-2.50;99.90
31271;DHT22;17904;47.420;9.310;2022-12-18T12:05:04;-2.40;99.90
31271;DHT22;17904;47.420;9.310;2022-12-18T12:13:55;-2.30;99.90
31271;DHT22;17904;47.420;9.310;2022-12-18T12:19:31;-2.30;99.90
31271;DHT22;17904;47.420;9.310;2022-12-18T12:22:23;-2.20;99.90
31271;DHT22;17904;47.420;9.310;2022-12-18T12:25:20;-2.20;99.90
31271;DHT22;17904;47.420;9.310;2022-12-18T12:35:59;-2.20;99.90
31271;DHT22;17904;47.420;9.310;2022-12-18T12:38:35;-2.10;99.90
31271;DHT22;17904;47.420;9.310;2022-12-18T12:41:10;-2.10;99.90
31271;DHT22;17904;47.420;9.310;2022-12-18T12:44:01;-2.10;99.90
31271;DHT22;17904;47.420;9.310;2022-12-18T12:46:31;-2.10;99.90
31271;DHT22;17904;47.420;9.310;2022-12-18T12:49:02;-2.10;99.90
31271;DHT22;17904;47.420;9.310;2022-12-18T12:51:36;-2.10;99.90
31271;DHT22;17904;47.420;9.310;2022-12-18T12:54:17;-2.10;99.90
31271;DHT22;17904;47.420;9.310;2022-12-18T13:02:01;-2.20;99.90
31271;DHT22;17904;47.420;9.310;2022-12-18T13:07:40;-2.30;99.90
31271;DHT22;17904;47.420;9.310;2022-12-18T13:10:13;-2.30;99.90
31271;DHT22;17904;47.420;9.310;2022-12-18T13:13:09;-2.30;99.90
31271;DHT22;17904;47.420;9.310;2022-12-18T13:16:08;-2.40;99.90
31271;DHT22;17904;47.420;9.310;2022-12-18T13:18:34;-2.40;99.90
31271;DHT22;17904;47.420;9.310;2022-12-18T13:21:07;-2.30;99.90
31271;DHT22;17904;47.420;9.310;2022-12-18T13:23:39;-2.30;99.90
31271;DHT22;17904;47.420;9.310;2022-12-18T13:31:07;-2.20;99.90
31271;DHT22;17904;47.420;9.310;2022-12-18T13:33:42;-2.20;99.90
31271;DHT22;17904;47.420;9.310;2022-12-18T13:36:31;-2.20;99.90
31271;DHT22;17904;47.420;9.310;2022-12-18T13:41:47;-2.20;99.90
31271;DHT22;17904;47.420;9.310;2022-12-18T13:44:32;-2.20;99.90
31271;DHT22;17904;47.420;9.310;2022-12-18T13:47:32;-2.20;99.90
31271;DHT22;17904;47.420;9.310;2022-12-18T13:50:01;-2.30;99.90
31271;DHT22;17904;47.420;9.310;2022-12-18T13:52:34;-2.30;99.90
31271;DHT22;17904;47.420;9.310;2022-12-18T13:55:07;-2.30;99.90
31271;DHT22;17904;47.420;9.310;2022-12-18T13:57:41;-2.30;99.90
31271;DHT22;17904;47.420;9.310;2022-12-18T14:02:50;-2.30;99.90
31271;DHT22;17904;47.420;9.310;2022-12-18T14:05:26;-2.20;99.90
31271;DHT22;17904;47.420;9.310;2022-12-18T14:07:54;-2.20;99.90
31271;DHT22;17904;47.420;9.310;2022-12-18T14:10:22;-2.20;99.90
31271;DHT22;17904;47.420;9.310;2022-12-18T14:13:10;-2.20;99.90
31271;DHT22;17904;47.420;9.310;2022-12-18T14:15:43;-2.10;99.90
31271;DHT22;17904;47.420;9.310;2022-12-18T14:18:37;-2.20;99.90
31271;DHT22;17904;47.420;9.310;2022-12-18T14:21:05;-2.30;99.90
31271;DHT22;17904;47.420;9.310;2022-12-18T14:28:48;-2.40;99.90
31271;DHT22;17904;47.420;9.310;2022-12-18T14:31:20;-2.30;99.90
31271;DHT22;17904;47.420;9.310;2022-12-18T14:33:48;-2.40;99.90
31271;DHT22;17904;47.420;9.310;2022-12-18T14:36:20;-2.40;99.90
31271;DHT22;17904;47.420;9.310;2022-12-18T14:38:52;-2.40;99.90
31271;DHT22;17904;47.420;9.310;2022-12-18T14:41:21;-2.40;99.90
31271;DHT22;17904;47.420;9.310;2022-12-18T14:43:50;-2.40;99.90
31271;DHT22;17904;47.420;9.310;2022-12-18T14:46:30;-2.40;99.90
31271;DHT22;17904;47.420;9.310;2022-12-18T14:49:02;-2.40;99.90
31271;DHT22;17904;47.420;9.310;2022-12-18T14:51:32;-2.40;99.90
31271;DHT22;17904;47.420;9.310;2022-12-18T14:54:01;-2.40;99.90
31271;DHT22;17904;47.420;9.310;2022-12-18T14:56:33;-2.50;99.90
31271;DHT22;17904;47.420;9.310;2022-12-18T14:59:12;-2.50;99.90
31271;DHT22;17904;47.420;9.310;2022-12-18T15:01:56;-2.50;99.90
31271;DHT22;17904;47.420;9.310;2022-12-18T15:04:36;-2.50;99.90
31271;DHT22;17904;47.420;9.310;2022-12-18T15:07:14;-2.50;99.90
31271;DHT22;17904;47.420;9.310;2022-12-18T15:09:44;-2.50;99.90
31271;DHT22;17904;47.420;9.310;2022-12-18T15:12:34;-2.50;99.90
31271;DHT22;17904;47.420;9.310;2022-12-18T15:15:01;-2.50;99.90
31271;DHT22;17904;47.420;9.310;2022-12-18T15:17:28;-2.50;99.90
31271;DHT22;17904;47.420;9.310;2022-12-18T15:20:03;-2.60;99.90
31271;DHT22;17904;47.420;9.310;2022-12-18T15:22:37;-2.60;99.90
31271;DHT22;17904;47.420;9.310;2022-12-18T15:25:26;-2.60;99.90
31271;DHT22;17904;47.420;9.310;2022-12-18T15:27:54;-2.70;99.90
31271;DHT22;17904;47.420;9.310;2022-12-18T15:30:22;-2.70;99.90
31271;DHT22;17904;47.420;9.310;2022-12-18T15:32:49;-2.80;99.90
31271;DHT22;17904;47.420;9.310;2022-12-18T15:35:21;-2.80;99.90
31271;DHT22;17904;47.420;9.310;2022-12-18T15:37:49;-2.80;99.90
31271;DHT22;17904;47.420;9.310;2022-12-18T15:40:22;-2.80;99.90
31271;DHT22;17904;47.420;9.310;2022-12-18T15:42:53;-2.90;99.90
31271;DHT22;17904;47.420;9.310;2022-12-18T15:45:39;-2.90;99.90
31271;DHT22;17904;47.420;9.310;2022-12-18T15:48:19;-3.00;99.90
31271;DHT22;17904;47.420;9.310;2022-12-18T15:50:46;-3.00;99.90
31271;DHT22;17904;47.420;9.310;2022-12-18T15:53:13;-3.00;99.90
31271;DHT22;17904;47.420;9.310;2022-12-18T15:55:39;-3.00;99.90
31271;DHT22;17904;47.420;9.310;2022-12-18T15:58:27;-3.00;99.90
31271;DHT22;17904;47.420;9.310;2022-12-18T16:00:55;-3.00;99.90
31271;DHT22;17904;47.420;9.310;2022-12-18T16:03:22;-3.00;99.90
31271;DHT22;17904;47.420;9.310;2022-12-18T16:05:49;-3.00;99.90
31271;DHT22;17904;47.420;9.310;2022-12-18T16:08:16;-3.10;99.90
31271;DHT22;17904;47.420;9.310;2022-12-18T16:10:43;-3.00;99.90
31271;DHT22;17904;47.420;9.310;2022-12-18T16:13:20;-3.10;99.90
31271;DHT22;17904;47.420;9.310;2022-12-18T16:15:47;-3.10;99.90
31271;DHT22;17904;47.420;9.310;2022-12-18T16:18:14;-3.10;99.90
31271;DHT22;17904;47.420;9.310;2022-12-18T16:20:41;-3.10;99.90
31271;DHT22;17904;47.420;9.310;2022-12-18T16:23:08;-3.10;99.90
31271;DHT22;17904;47.420;9.310;2022-12-18T16:25:34;-3.10;99.90
31271;DHT22;17904;47.420;9.310;2022-12-18T16:28:01;-3.10;99.90
31271;DHT22;17904;47.420;9.310;2022-12-18T16:30:29;-3.20;99.90
31271;DHT22;17904;47.420;9.310;2022-12-18T16:33:04;-3.10;99.90
31271;DHT22;17904;47.420;9.310;2022-12-18T16:35:33;-3.20;99.90
31271;DHT22;17904;47.420;9.310;2022-12-18T16:38:00;-3.20;99.90
31271;DHT22;17904;47.420;9.310;2022-12-18T16:40:27;-3.20;99.90
31271;DHT22;17904;47.420;9.310;2022-12-18T16:42:54;-3.20;99.90
31271;DHT22;17904;47.420;9.310;2022-12-18T16:45:21;-3.20;99.90
31271;DHT22;17904;47.420;9.310;2022-12-18T16:47:48;-3.20;99.90
31271;DHT22;17904;47.420;9.310;2022-12-18T16:50:15;-3.20;99.90
31271;DHT22;17904;47.420;9.310;2022-12-18T16:52:42;-3.20;99.90
31271;DHT22;17904;47.420;9.310;2022-12-18T16:55:09;-3.20;99.90
31271;DHT22;17904;47.420;9.310;2022-12-18T16:57:36;-3.20;99.90
31271;DHT22;17904;47.420;9.310;2022-12-18T17:00:03;-3.20;99.90
31271;DHT22;17904;47.420;9.310;2022-12-18T17:02:32;-3.20;99.90
31271;DHT22;17904;47.420;9.310;2022-12-18T17:04:59;-3.20;99.90
31271;DHT22;17904;47.420;9.310;2022-12-18T17:07:27;-3.20;99.90
31271;DHT22;17904;47.420;9.310;2022-12-18T17:09:54;-3.20;99.90
31271;DHT22;17904;47.420;9.310;2022-12-18T17:12:21;-3.30;99.90
31271;DHT22;17904;47.420;9.310;2022-12-18T17:14:49;-3.20;99.90
31271;DHT22;17904;47.420;9.310;2022-12-18T17:17:16;-3.20;99.90
31271;DHT22;17904;47.420;9.310;2022-12-18T17:19:50;-3.30;99.90
31271;DHT22;17904;47.420;9.310;2022-12-18T17:22:17;-3.30;99.90
31271;DHT22;17904;47.420;9.310;2022-12-18T17:24:45;-3.30;99.90
31271;DHT22;17904;47.420;9.310;2022-12-18T17:27:12;-3.30;99.90
31271;DHT22;17904;47.420;9.310;2022-12-18T17:29:39;-3.30;99.90
31271;DHT22;17904;47.420;9.310;2022-12-18T17:32:15;-3.30;99.90
31271;DHT22;17904;47.420;9.310;2022-12-18T17:34:46;-3.30;99.90
31271;DHT22;17904;47.420;9.310;2022-12-18T17:37:14;-3.30;99.90